Time;durP1;ratioP1;P1;durP2;ratioP2;P2;SDS_P1;SDS_P2;PMS_P1;PMS_P2;Temp;Humidity;BMP_temperature;BMP_pressure;BME280_temperature;BME280_humidity;BME280_pressure;Samples;Min_cycle;Max_cycle;Signal;HPM_P1;HPM_P2
2021/08/04 09:16:31;;;;;;;7.60;2.30;;;;;;;;;;2075851;28;99905;-23
2021/08/04 09:17:32;;;;;;;6.15;2.35;;;;;;;;;;2072037;28;100049;-21
2021/08/04 09:18:40;;;;;;;;;;;;;;;;;;2072145;28;99890;-23
2021/08/04 09:19:44;;;;;;;3.38;1.70;;;;;;;;;;2063803;28;99970;-21
2021/08/04 09:20:54;;;;;;;4.53;2.13;;;;;;;;;;2064955;28;100121;-24
2021/08/04 09:22:19;;;;;;;4.18;1.83;;;;;;;;;;2070733;28;99985;-24
2021/08/04 09:23:26;;;;;;;5.57;2.03;;;;;;;;;;2069245;28;100064;-23
2021/08/04 09:24:27;;;;;;;3.92;1.60;;;;;;;;;;2070228;28;100221;-24
2021/08/04 09:25:29;;;;;;;;;;;;;;;;;;2071820;28;100721;-20
2021/08/04 09:26:29;;;;;;;;;;;;;;;;;;2064719;28;100710;-22
2021/08/04 09:27:41;;;;;;;5.25;2.20;;;;;;;;;;2070544;28;100136;-19
2021/08/04 09:29:03;;;;;;;5.22;1.60;;;;;;;;;;2063812;28;100840;-18
2021/08/04 09:30:05;;;;;;;3.72;2.28;;;;;;;;;;2063681;28;100031;-21
2021/08/04 09:31:05;;;;;;;2.78;1.80;;;;;;;;;;2064164;28;99935;-18
2021/08/04 09:32:06;;;;;;;;;;;;;;;;;;2066927;28;99871;-18
2021/08/04 09:33:14;;;;;;;6.97;1.83;;;;;;;;;;2063947;28;99960;-21
2021/08/04 09:34:40;;;;;;;5.55;2.13;;;;;;;;;;2063519;28;99917;-19
2021/08/04 09:35:50;;;;;;;7.68;2.30;;;;;;;;;;2068151;28;99978;-19
2021/08/04 09:37:07;;;;;;;6.60;1.95;;;;;;;;;;2072472;28;100084;-19
2021/08/04 09:38:08;;;;;;;3.70;2.17;;;;;;;;;;2072532;28;99987;-20
2021/08/04 09:39:09;;;;;;;3.17;1.50;;;;;;;;;;2069789;28;99970;-19
2021/08/04 09:40:11;;;;;;;;;;;;;;;;;;2064577;28;100174;-18
2021/08/04 09:41:16;;;;;;;3.08;1.90;;;;;;;;;;2063866;28;99991;-18
2021/08/04 09:42:17;;;;;;;6.93;2.08;;;;;;;;;;2063979;28;99909;-21
2021/08/04 09:43:24;;;;;;;;;;;;;;;;;;2063914;28;100041;-19
2021/08/04 09:44:25;;;;;;;6.13;1.60;;;;;;;;;;2063653;28;99921;-22
2021/08/04 09:45:48;;;;;;;7.05;2.30;;;;;;;;;;2063562;28;100322;-21
2021/08/04 09:46:49;;;;;;;7.43;2.15;;;;;;;;;;2062948;28;100064;-21
2021/08/04 09:47:57;;;;;;;;;;;;;;;;;;2063615;28;100014;-20
2021/08/04 09:49:11;;;;;;;5.28;1.90;;;;;;;;;;2063684;28;100092;-22
2021/08/04 09:50:12;;;;;;;4.70;1.63;;;;;;;;;;2063661;28;101035;-19
2021/08/04 09:51:15;;;;;;;;;;;;;;;;;;2063922;28;100020;-22
2021/08/04 09:52:16;;;;;;;6.50;2.28;;;;;;;;;;2063376;28;101232;-20
2021/08/04 09:53:18;;;;;;;;;;;;;;;;;;2063660;28;99947;-19
2021/08/04 09:54:19;;;;;;;10.55;2.28;;;;;;;;;;2063828;28;100194;-22
2021/08/04 09:55:20;;;;;;;6.20;1.80;;;;;;;;;;2063067;28;100135;-21
2021/08/04 09:56:21;;;;;;;5.32;1.80;;;;;;;;;;2062781;28;103045;-21
2021/08/04 09:57:39;;;;;;;7.95;2.10;;;;;;;;;;2068000;28;100138;-21
2021/08/04 09:58:46;;;;;;;8.48;2.13;;;;;;;;;;2063560;28;100127;-23
2021/08/04 10:00:08;;;;;;;4.03;2.28;;;;;;;;;;2063224;28;100181;-23
2021/08/04 10:01:13;;;;;;;5.40;2.20;;;;;;;;;;2062748;28;100305;-22
2021/08/04 10:02:30;;;;;;;5.75;2.10;;;;;;;;;;2063287;28;100091;-20
2021/08/04 10:03:32;;;;;;;6.22;1.60;;;;;;;;;;2063215;28;100449;-19
2021/08/04 10:04:33;;;;;;;7.05;2.05;;;;;;;;;;2063214;28;100127;-21
2021/08/04 10:05:42;;;;;;;5.90;1.75;;;;;;;;;;2063040;28;100017;-17
2021/08/04 10:06:46;;;;;;;5.70;2.00;;;;;;;;;;2063741;28;99995;-22
2021/08/04 10:08:07;;;;;;;3.47;1.75;;;;;;;;;;2063460;28;100024;-19
2021/08/04 10:09:13;;;;;;;3.70;1.50;;;;;;;;;;2063668;28;99957;-18
2021/08/04 10:10:14;;;;;;;2.88;1.90;;;;;;;;;;2063719;28;100702;-18
2021/08/04 10:11:16;;;;;;;;;;;;;;;;;;2064268;28;99998;-18
2021/08/04 10:12:18;;;;;;;2.92;1.45;;;;;;;;;;2063230;28;100739;-20
2021/08/04 10:13:21;;;;;;;3.00;1.67;;;;;;;;;;2072057;28;100030;-20
2021/08/04 10:14:22;;;;;;;3.25;1.63;;;;;;;;;;2071607;28;100030;-18
2021/08/04 10:15:24;;;;;;;4.35;1.90;;;;;;;;;;2071742;28;100007;-22
2021/08/04 10:16:31;;;;;;;3.78;2.00;;;;;;;;;;2071445;28;100235;-20
2021/08/04 10:17:31;;;;;;;3.17;1.80;;;;;;;;;;2065562;28;100505;-22
2021/08/04 10:18:33;;;;;;;5.47;1.90;;;;;;;;;;2065027;28;100080;-22
2021/08/04 10:19:35;;;;;;;2.10;1.30;;;;;;;;;;2057304;28;99971;-20
2021/08/04 10:20:37;;;;;;;6.72;1.80;;;;;;;;;;2060612;28;99961;-18
2021/08/04 10:21:42;;;;;;;5.50;1.77;;;;;;;;;;2058130;28;99814;-19
2021/08/04 10:22:44;;;;;;;4.00;2.13;;;;;;;;;;2057956;28;100128;-17
2021/08/04 10:23:48;;;;;;;8.38;2.10;;;;;;;;;;2057612;28;99990;-22
2021/08/04 10:24:49;;;;;;;5.45;1.92;;;;;;;;;;2058154;28;100100;-21
2021/08/04 10:25:51;;;;;;;5.82;1.90;;;;;;;;;;2058370;28;100045;-20
2021/08/04 10:26:54;;;;;;;6.45;2.05;;;;;;;;;;2058048;28;100079;-18
2021/08/04 10:27:55;;;;;;;4.80;1.95;;;;;;;;;;2057975;28;100256;-20
2021/08/04 10:28:57;;;;;;;5.80;1.70;;;;;;;;;;2057865;28;100340;-19
2021/08/04 10:29:58;;;;;;;4.60;1.83;;;;;;;;;;2057907;28;99934;-20
2021/08/04 10:30:59;;;;;;;7.40;1.90;;;;;;;;;;2065702;28;100225;-18
2021/08/04 10:32:01;;;;;;;3.70;1.85;;;;;;;;;;2056819;28;100134;-22
2021/08/04 10:33:07;;;;;;;5.95;1.83;;;;;;;;;;2057256;28;100027;-19
2021/08/04 10:34:09;;;;;;;4.13;1.70;;;;;;;;;;2057991;28;100034;-18
2021/08/04 10:35:10;;;;;;;4.45;2.08;;;;;;;;;;2058130;28;100134;-21
2021/08/04 10:36:14;;;;;;;2.67;1.98;;;;;;;;;;2057821;28;100338;-19
2021/08/04 10:37:15;;;;;;;5.00;1.77;;;;;;;;;;2057431;28;99977;-20
2021/08/04 10:38:22;;;;;;;3.22;1.80;;;;;;;;;;2057140;28;100016;-21
2021/08/04 10:39:25;;;;;;;2.85;1.80;;;;;;;;;;2057981;28;100179;-18
2021/08/04 10:40:34;;;;;;;3.63;2.00;;;;;;;;;;2056860;28;99911;-19
2021/08/04 10:41:36;;;;;;;;;;;;;;;;;;2058634;28;99912;-18
2021/08/04 10:42:40;;;;;;;3.30;1.90;;;;;;;;;;2065839;28;99926;-22
2021/08/04 10:43:44;;;;;;;2.97;1.77;;;;;;;;;;2057851;28;99977;-21
2021/08/04 10:44:46;;;;;;;4.13;1.90;;;;;;;;;;2057142;28;100080;-22
2021/08/04 10:45:47;;;;;;;5.43;1.80;;;;;;;;;;2057217;28;100063;-21
2021/08/04 10:46:48;;;;;;;6.05;2.15;;;;;;;;;;2057227;28;100262;-19
2021/08/04 10:47:58;;;;;;;3.05;1.63;;;;;;;;;;2057150;28;100138;-22
2021/08/04 10:49:05;;;;;;;3.10;1.88;;;;;;;;;;2058141;28;99955;-19
2021/08/04 10:50:12;;;;;;;5.05;2.10;;;;;;;;;;2058066;28;100426;-20
2021/08/04 10:51:16;;;;;;;6.53;2.05;;;;;;;;;;2058059;28;100069;-21
2021/08/04 10:52:16;;;;;;;3.88;2.03;;;;;;;;;;2057878;28;100107;-21
2021/08/04 10:53:17;;;;;;;4.68;1.67;;;;;;;;;;2057231;28;100052;-20
2021/08/04 10:54:19;;;;;;;6.88;2.00;;;;;;;;;;2048900;28;100458;-21
2021/08/04 10:55:20;;;;;;;4.93;1.92;;;;;;;;;;2057380;28;100026;-18
2021/08/04 10:56:20;;;;;;;;;;;;;;;;;;2058287;28;99998;-19
2021/08/04 10:57:21;;;;;;;4.25;1.73;;;;;;;;;;2057892;28;99956;-21
2021/08/04 10:58:22;;;;;;;3.70;1.80;;;;;;;;;;2057469;28;100132;-24
2021/08/04 10:59:30;;;;;;;5.85;1.90;;;;;;;;;;2057949;28;100079;-20
2021/08/04 11:00:32;;;;;;;6.22;1.73;;;;;;;;;;2057925;28;100205;-24
2021/08/04 11:01:33;;;;;;;3.95;1.60;;;;;;;;;;2057913;28;100008;-20
2021/08/04 11:02:34;;;;;;;5.00;1.50;;;;;;;;;;2057747;28;100064;-20
2021/08/04 11:03:41;;;;;;;5.47;1.90;;;;;;;;;;2057870;28;100011;-23
2021/08/04 11:04:45;;;;;;;2.17;1.92;;;;;;;;;;2057593;28;99948;-20
2021/08/04 11:06:22;;;;;;;4.07;1.63;;;;;;;;;;2057063;28;100007;-22
2021/08/04 11:07:24;;;;;;;5.25;1.73;;;;;;;;;;2032205;28;99971;-21
2021/08/04 11:08:24;;;;;;;4.88;2.00;;;;;;;;;;2032193;28;100216;-19
2021/08/04 11:09:37;;;;;;;;;;;;;;;;;;2034623;28;100572;-19
2021/08/04 11:10:39;;;;;;;5.65;1.85;;;;;;;;;;2057454;28;99794;-20
2021/08/04 11:11:58;;;;;;;5.00;1.70;;;;;;;;;;2057381;28;100009;-21
2021/08/04 11:13:05;;;;;;;5.95;1.90;;;;;;;;;;2057425;28;100072;-21
2021/08/04 11:14:06;;;;;;;;;;;;;;;;;;2062484;28;99932;-21
2021/08/04 11:15:29;;;;;;;5.25;1.92;;;;;;;;;;2064372;28;99977;-21
2021/08/04 11:16:32;;;;;;;5.68;1.80;;;;;;;;;;2054164;28;100089;-19
2021/08/04 11:18:04;;;;;;;4.55;1.77;;;;;;;;;;2057004;28;99941;-19
2021/08/04 11:19:07;;;;;;;7.88;1.90;;;;;;;;;;2064489;28;100601;-19
2021/08/04 11:20:10;;;;;;;1.88;1.65;;;;;;;;;;2057034;28;100386;-21
2021/08/04 11:21:14;;;;;;;5.38;1.63;;;;;;;;;;2061870;28;100030;-21
2021/08/04 11:22:19;;;;;;;3.60;1.70;;;;;;;;;;2055542;28;100067;-18
2021/08/04 11:23:43;;;;;;;7.13;2.05;;;;;;;;;;2048985;28;100139;-22
2021/08/04 11:25:02;;;;;;;5.82;1.75;;;;;;;;;;2057267;28;99947;-20
2021/08/04 11:26:23;;;;;;;4.00;1.35;;;;;;;;;;2057342;28;100206;-18
2021/08/04 11:27:26;;;;;;;4.60;1.60;;;;;;;;;;2065367;28;100152;-18
2021/08/04 11:28:44;;;;;;;2.58;1.70;;;;;;;;;;2058100;28;101517;-21
2021/08/04 11:29:46;;;;;;;4.65;1.60;;;;;;;;;;2064926;28;100071;-18
2021/08/04 11:30:53;;;;;;;7.28;2.10;;;;;;;;;;2064582;28;99880;-20
2021/08/04 11:32:16;;;;;;;4.38;1.67;;;;;;;;;;2049614;28;99920;-19
2021/08/04 11:33:27;;;;;;;5.05;2.17;;;;;;;;;;2049554;28;99988;-19
2021/08/04 11:34:30;;;;;;;;;;;;;;;;;;2054630;28;99910;-18
2021/08/04 11:35:31;;;;;;;3.63;1.42;;;;;;;;;;2049656;28;100514;-19
2021/08/04 11:36:32;;;;;;;5.85;1.80;;;;;;;;;;2054979;28;99924;-18
2021/08/04 11:37:40;;;;;;;;;;;;;;;;;;2057439;28;100091;-21
2021/08/04 11:38:52;;;;;;;5.10;1.67;;;;;;;;;;2057015;28;100046;-20
2021/08/04 11:40:00;;;;;;;9.77;2.58;;;;;;;;;;2064666;28;100001;-22
2021/08/04 11:41:23;;;;;;;11.00;4.15;;;;;;;;;;2065945;28;100319;-23
2021/08/04 11:42:24;;;;;;;23.00;8.98;;;;;;;;;;2065386;28;100068;-20
2021/08/04 11:43:25;;;;;;;30.08;11.13;;;;;;;;;;2065736;28;99957;-22
2021/08/04 11:44:28;;;;;;;33.08;13.05;;;;;;;;;;2065417;28;99805;-18
2021/08/04 11:45:30;;;;;;;37.70;15.43;;;;;;;;;;2065560;28;100273;-22
2021/08/04 11:46:40;;;;;;;37.40;16.50;;;;;;;;;;2065986;28;99950;-22
2021/08/04 11:47:41;;;;;;;42.22;15.20;;;;;;;;;;2065366;28;100081;-19
2021/08/04 11:48:52;;;;;;;109.05;42.00;;;;;;;;;;2065358;28;100059;-19
2021/08/04 11:49:53;;;;;;;377.95;149.82;;;;;;;;;;2064746;28;99932;-22
2021/08/04 11:50:55;;;;;;;360.67;144.75;;;;;;;;;;2060372;28;100003;-22
2021/08/04 11:52:09;;;;;;;378.15;141.80;;;;;;;;;;2056573;28;99967;-19
2021/08/04 11:53:09;;;;;;;296.25;111.68;;;;;;;;;;2056993;28;100001;-21
2021/08/04 11:54:12;;;;;;;192.20;75.55;;;;;;;;;;2056106;28;101404;-20
2021/08/04 11:55:15;;;;;;;382.13;140.80;;;;;;;;;;2056234;28;100152;-20
2021/08/04 11:56:16;;;;;;;162.57;54.55;;;;;;;;;;2056988;28;99872;-22
2021/08/04 11:57:29;;;;;;;;;;;;;;;;;;2057830;28;99986;-21
2021/08/04 11:58:31;;;;;;;98.93;35.15;;;;;;;;;;2057459;28;99951;-23
2021/08/04 11:59:46;;;;;;;73.90;26.17;;;;;;;;;;2057405;28;99923;-18
2021/08/04 12:00:47;;;;;;;89.15;32.08;;;;;;;;;;2057316;28;99981;-20
2021/08/04 12:01:55;;;;;;;;;;;;;;;;;;2057704;28;100139;-21
2021/08/04 12:02:56;;;;;;;77.03;28.83;;;;;;;;;;2057331;28;99925;-20
2021/08/04 12:04:12;;;;;;;87.80;33.67;;;;;;;;;;2057079;28;99944;-20
2021/08/04 12:05:15;;;;;;;84.93;33.05;;;;;;;;;;2056709;28;100288;-20
2021/08/04 12:06:17;;;;;;;88.72;34.30;;;;;;;;;;2064741;28;100014;-21
2021/08/04 12:07:25;;;;;;;88.30;32.60;;;;;;;;;;2064098;28;100082;-20
2021/08/04 12:08:29;;;;;;;91.45;33.35;;;;;;;;;;2057344;28;99898;-17
2021/08/04 12:09:36;;;;;;;85.40;32.83;;;;;;;;;;2057053;28;100126;-19
2021/08/04 12:10:37;;;;;;;87.07;32.30;;;;;;;;;;2057250;28;99978;-20
2021/08/04 12:11:42;;;;;;;90.78;33.60;;;;;;;;;;2056913;28;100308;-22
2021/08/04 12:12:49;;;;;;;86.20;33.50;;;;;;;;;;2056520;28;100422;-22
2021/08/04 12:14:03;;;;;;;90.68;32.95;;;;;;;;;;2056520;28;100021;-22
2021/08/04 12:15:22;;;;;;;92.03;35.55;;;;;;;;;;2056960;28;100001;-19
2021/08/04 12:16:23;;;;;;;95.22;32.75;;;;;;;;;;2064380;28;100158;-19
2021/08/04 12:17:25;;;;;;;;;;;;;;;;;;2064761;28;100105;-18
2021/08/04 12:18:26;;;;;;;92.80;36.42;;;;;;;;;;2057330;28;100039;-19
2021/08/04 12:19:36;;;;;;;95.32;36.72;;;;;;;;;;2056785;28;100006;-21
2021/08/04 12:20:37;;;;;;;90.95;35.20;;;;;;;;;;2057334;28;100216;-22
2021/08/04 12:21:39;;;;;;;87.25;32.25;;;;;;;;;;2057155;28;99923;-19
2021/08/04 12:22:41;;;;;;;92.35;36.67;;;;;;;;;;2064370;28;100163;-19
2021/08/04 12:23:42;;;;;;;89.88;33.35;;;;;;;;;;2064045;28;100054;-20
2021/08/04 12:24:58;;;;;;;89.35;32.78;;;;;;;;;;2057032;28;100430;-20
2021/08/04 12:26:01;;;;;;;95.55;34.35;;;;;;;;;;2056963;28;100050;-21
2021/08/04 12:27:02;;;;;;;82.72;32.70;;;;;;;;;;2056799;28;99942;-19
2021/08/04 12:28:04;;;;;;;85.45;34.38;;;;;;;;;;2057066;28;99983;-20
2021/08/04 12:29:17;;;;;;;84.47;32.85;;;;;;;;;;2056447;28;100207;-21
2021/08/04 12:30:29;;;;;;;90.88;31.98;;;;;;;;;;2056414;28;99866;-18
2021/08/04 12:31:30;;;;;;;85.88;32.67;;;;;;;;;;2057348;28;99950;-17
2021/08/04 12:32:33;;;;;;;89.63;33.33;;;;;;;;;;2064244;28;100099;-20
2021/08/04 12:33:45;;;;;;;77.70;30.67;;;;;;;;;;2063858;28;100202;-21
2021/08/04 12:34:57;;;;;;;87.03;32.67;;;;;;;;;;2064040;28;100133;-21
2021/08/04 12:36:04;;;;;;;76.10;31.48;;;;;;;;;;2060625;28;100006;-22
2021/08/04 12:37:05;;;;;;;89.05;32.90;;;;;;;;;;2057373;28;99866;-31
2021/08/04 12:38:18;;;;;;;82.15;32.40;;;;;;;;;;2057264;28;99985;-21
2021/08/04 12:39:20;;;;;;;92.80;32.38;;;;;;;;;;2057395;28;100452;-20
2021/08/04 12:40:23;;;;;;;84.57;32.15;;;;;;;;;;2056593;28;99997;-19
2021/08/04 12:41:27;;;;;;;86.47;31.20;;;;;;;;;;2057028;28;100194;-22
2021/08/04 12:42:29;;;;;;;83.32;30.27;;;;;;;;;;2056723;28;100165;-20
2021/08/04 12:43:36;;;;;;;99.68;33.38;;;;;;;;;;2057302;28;99997;-23
2021/08/04 12:44:37;;;;;;;83.70;30.75;;;;;;;;;;2057363;28;99909;-20
2021/08/04 12:45:52;;;;;;;87.65;31.20;;;;;;;;;;2057220;28;99902;-19
2021/08/04 12:46:53;;;;;;;88.50;31.95;;;;;;;;;;2057078;28;100035;-22
2021/08/04 12:47:56;;;;;;;;;;;;;;;;;;2057340;28;99908;-19
2021/08/04 12:48:58;;;;;;;83.90;32.20;;;;;;;;;;2057135;28;100082;-22
2021/08/04 12:49:59;;;;;;;82.47;32.50;;;;;;;;;;2056669;28;100103;-21
2021/08/04 12:51:00;;;;;;;;;;;;;;;;;;2057303;28;100042;-23
2021/08/04 12:52:01;;;;;;;94.95;34.58;;;;;;;;;;2057237;28;99929;-23
2021/08/04 12:53:02;;;;;;;91.00;32.70;;;;;;;;;;2056953;28;100015;-19
2021/08/04 12:54:05;;;;;;;89.47;30.27;;;;;;;;;;2056799;28;100096;-17
2021/08/04 12:55:13;;;;;;;86.07;31.95;;;;;;;;;;2056855;28;100165;-18
2021/08/04 12:56:18;;;;;;;90.57;32.58;;;;;;;;;;2056976;28;100061;-19
2021/08/04 12:57:24;;;;;;;84.38;32.42;;;;;;;;;;2057276;28;99980;-19
2021/08/04 12:58:25;;;;;;;77.72;31.45;;;;;;;;;;2056908;28;100038;-18
2021/08/04 12:59:42;;;;;;;;;;;;;;;;;;2057448;28;99972;-22
2021/08/04 13:00:43;;;;;;;83.78;32.60;;;;;;;;;;2057181;28;100009;-19
2021/08/04 13:01:47;;;;;;;94.40;32.33;;;;;;;;;;2056783;28;99947;-21
2021/08/04 13:02:49;;;;;;;79.85;30.08;;;;;;;;;;2057220;28;100159;-23
2021/08/04 13:03:51;;;;;;;82.72;31.30;;;;;;;;;;2056798;28;100029;-22
2021/08/04 13:05:04;;;;;;;86.95;31.45;;;;;;;;;;2048205;28;100108;-23
2021/08/04 13:06:05;;;;;;;90.50;30.63;;;;;;;;;;2042650;28;100507;-23
2021/08/04 13:07:08;;;;;;;78.82;30.15;;;;;;;;;;2048295;28;100091;-19
2021/08/04 13:08:08;;;;;;;91.03;31.27;;;;;;;;;;2048774;28;100063;-21
2021/08/04 13:09:09;;;;;;;;;;;;;;;;;;2057640;28;100051;-21
2021/08/04 13:10:12;;;;;;;89.10;30.65;;;;;;;;;;2057283;28;99961;-21
2021/08/04 13:11:26;;;;;;;84.85;31.95;;;;;;;;;;2056866;28;100035;-23
2021/08/04 13:12:29;;;;;;;95.80;31.05;;;;;;;;;;2057161;28;100052;-21
2021/08/04 13:13:57;;;;;;;88.30;30.65;;;;;;;;;;2056845;28;99986;-20
2021/08/04 13:15:14;;;;;;;82.88;29.70;;;;;;;;;;2054469;28;100333;-20
2021/08/04 13:16:43;;;;;;;83.55;30.25;;;;;;;;;;2056294;28;100629;-22
2021/08/04 13:17:54;;;;;;;86.10;31.85;;;;;;;;;;2054096;28;101516;-20
2021/08/04 13:18:55;;;;;;;84.78;31.17;;;;;;;;;;2057302;28;99849;-19
2021/08/04 13:20:06;;;;;;;;;;;;;;;;;;2057206;28;99907;-20
2021/08/04 13:21:12;;;;;;;100.28;31.88;;;;;;;;;;2057337;28;100397;-20
2021/08/04 13:22:13;;;;;;;79.43;29.92;;;;;;;;;;2056470;28;100272;-19
2021/08/04 13:23:15;;;;;;;;;;;;;;;;;;2057198;28;99807;-20
2021/08/04 13:24:36;;;;;;;79.28;30.63;;;;;;;;;;2057105;28;100056;-19
2021/08/04 13:25:45;;;;;;;89.70;31.05;;;;;;;;;;2057032;28;100012;-19
2021/08/04 13:26:46;;;;;;;78.93;30.27;;;;;;;;;;2056911;28;99891;-20
2021/08/04 13:27:54;;;;;;;;;;;;;;;;;;2057360;28;100000;-20
2021/08/04 13:28:55;;;;;;;95.38;32.13;;;;;;;;;;2056976;28;100035;-21
2021/08/04 13:30:16;;;;;;;;;;;;;;;;;;2056804;28;100135;-19
2021/08/04 13:31:18;;;;;;;92.37;33.70;;;;;;;;;;2056930;28;100256;-19
2021/08/04 13:32:26;;;;;;;82.55;28.67;;;;;;;;;;2055954;28;100002;-19
2021/08/04 13:33:28;;;;;;;84.95;32.50;;;;;;;;;;2056574;28;99833;-23
2021/08/04 13:34:30;;;;;;;87.00;31.38;;;;;;;;;;2056724;28;100039;-22
2021/08/04 13:35:35;;;;;;;87.10;29.35;;;;;;;;;;2056618;28;100045;-21
2021/08/04 13:36:37;;;;;;;87.45;30.42;;;;;;;;;;2057069;28;100469;-19
2021/08/04 13:37:41;;;;;;;81.38;30.67;;;;;;;;;;2048051;28;100121;-20
2021/08/04 13:38:42;;;;;;;80.93;29.73;;;;;;;;;;2023727;28;100719;-21
2021/08/04 13:39:43;;;;;;;;;;;;;;;;;;2033164;28;100161;-20
2021/08/04 13:40:44;;;;;;;85.05;29.10;;;;;;;;;;2057078;28;100036;-19
2021/08/04 13:41:45;;;;;;;82.15;29.40;;;;;;;;;;2056015;28;99898;-21
2021/08/04 13:42:46;;;;;;;84.28;29.13;;;;;;;;;;2047228;28;99894;-21
2021/08/04 13:43:49;;;;;;;82.35;31.27;;;;;;;;;;2054718;28;99993;-20
2021/08/04 13:44:50;;;;;;;82.60;29.63;;;;;;;;;;2046983;28;100215;-21
2021/08/04 13:45:51;;;;;;;;;;;;;;;;;;2048386;28;99992;-22
2021/08/04 13:46:52;;;;;;;85.10;29.58;;;;;;;;;;2054522;28;100013;-22
2021/08/04 13:47:53;;;;;;;;;;;;;;;;;;2064056;28;100266;-20
2021/08/04 13:48:54;;;;;;;90.28;29.92;;;;;;;;;;2063704;28;100094;-20
2021/08/04 13:50:01;;;;;;;92.45;30.20;;;;;;;;;;2059417;28;100023;-20
2021/08/04 13:51:03;;;;;;;81.15;30.05;;;;;;;;;;2056783;28;100074;-17
2021/08/04 13:52:04;;;;;;;89.72;31.35;;;;;;;;;;2056765;28;100326;-18
2021/08/04 13:53:05;;;;;;;85.75;32.25;;;;;;;;;;2057950;28;100111;-22
2021/08/04 13:54:09;;;;;;;79.57;30.95;;;;;;;;;;2040970;28;100000;-21
2021/08/04 13:55:14;;;;;;;86.32;29.00;;;;;;;;;;2033659;28;100035;-19
2021/08/04 13:56:15;;;;;;;73.80;28.50;;;;;;;;;;2056672;28;100178;-18
2021/08/04 13:57:16;;;;;;;87.30;28.98;;;;;;;;;;2056708;28;100381;-18
2021/08/04 13:58:16;;;;;;;;;;;;;;;;;;2057858;28;100088;-21
2021/08/04 13:59:17;;;;;;;81.40;25.92;;;;;;;;;;2065876;28;99920;-20
2021/08/04 14:00:23;;;;;;;53.75;19.15;;;;;;;;;;2058105;28;100381;-23
2021/08/04 14:01:25;;;;;;;75.03;27.10;;;;;;;;;;2057250;28;100151;-20
2021/08/04 14:02:26;;;;;;;67.18;23.58;;;;;;;;;;2061845;28;100166;-31
2021/08/04 14:03:27;;;;;;;;;;;;;;;;;;2066910;28;99908;-18
2021/08/04 14:04:28;;;;;;;47.72;16.77;;;;;;;;;;2066877;28;99824;-25
2021/08/04 14:05:36;;;;;;;35.05;13.18;;;;;;;;;;2065835;28;100011;-21
2021/08/04 14:06:36;;;;;;;44.30;14.43;;;;;;;;;;2065676;28;99880;-22
2021/08/04 14:07:38;;;;;;;36.63;14.43;;;;;;;;;;2066490;28;100352;-22
2021/08/04 14:08:40;;;;;;;44.35;13.48;;;;;;;;;;2065680;28;99940;-22
2021/08/04 14:09:41;;;;;;;37.15;12.43;;;;;;;;;;2065724;28;100017;-20
2021/08/04 14:10:43;;;;;;;31.15;12.40;;;;;;;;;;2074271;28;99963;-19
2021/08/04 14:11:44;;;;;;;30.98;11.45;;;;;;;;;;2073893;28;100082;-22
2021/08/04 14:12:45;;;;;;;;;;;;;;;;;;2067088;28;99967;-21
2021/08/04 14:13:46;;;;;;;30.52;9.85;;;;;;;;;;2065930;28;100280;-21
2021/08/04 14:14:47;;;;;;;24.38;10.30;;;;;;;;;;2065881;28;100047;-21
2021/08/04 14:15:48;;;;;;;;;;;;;;;;;;2066286;28;100229;-20
2021/08/04 14:16:49;;;;;;;24.90;8.70;;;;;;;;;;2066652;28;100275;-20
2021/08/04 14:17:51;;;;;;;28.25;9.88;;;;;;;;;;2066667;28;100130;-21
2021/08/04 14:18:52;;;;;;;25.60;9.35;;;;;;;;;;2066436;28;100014;-21
2021/08/04 14:19:53;;;;;;;;;;;;;;;;;;2067213;28;99859;-22
2021/08/04 14:20:54;;;;;;;23.92;8.38;;;;;;;;;;2066537;28;100160;-23
2021/08/04 14:21:54;;;;;;;;;;;;;;;;;;2066967;28;99847;-20
2021/08/04 14:22:57;;;;;;;17.42;7.38;;;;;;;;;;2066950;28;100189;-21
2021/08/04 14:23:59;;;;;;;20.40;8.50;;;;;;;;;;2066573;28;99906;-21
2021/08/04 14:25:00;;;;;;;19.48;7.80;;;;;;;;;;2065553;28;100052;-20
2021/08/04 14:26:00;;;;;;;17.35;7.78;;;;;;;;;;2065954;28;100004;-19
2021/08/04 14:27:02;;;;;;;;;;;;;;;;;;2066929;28;99812;-23
2021/08/04 14:28:03;;;;;;;16.95;6.72;;;;;;;;;;2066630;28;99863;-19
2021/08/04 14:29:05;;;;;;;16.92;6.25;;;;;;;;;;2066231;28;99813;-22
2021/08/04 14:30:17;;;;;;;19.70;7.13;;;;;;;;;;2082318;28;99815;-19
2021/08/04 14:31:18;;;;;;;16.75;6.65;;;;;;;;;;2081012;28;99783;-17
2021/08/04 14:32:20;;;;;;;18.70;6.65;;;;;;;;;;2080565;28;100027;-20
2021/08/04 14:33:21;;;;;;;18.80;6.53;;;;;;;;;;2080746;28;100062;-22
2021/08/04 14:34:22;;;;;;;;;;;;;;;;;;2082044;28;99964;-22
2021/08/04 14:35:22;;;;;;;15.33;6.30;;;;;;;;;;2081227;28;100076;-19
2021/08/04 14:36:23;;;;;;;;;;;;;;;;;;2081328;28;100133;-22
2021/08/04 14:37:24;;;;;;;14.85;5.80;;;;;;;;;;2080949;28;99921;-21
2021/08/04 14:38:25;;;;;;;14.88;5.68;;;;;;;;;;2081390;28;99743;-21
2021/08/04 14:39:26;;;;;;;;;;;;;;;;;;2081425;28;99793;-22
2021/08/04 14:40:27;;;;;;;13.38;4.95;;;;;;;;;;2080699;28;99999;-17
2021/08/04 14:41:28;;;;;;;14.60;5.25;;;;;;;;;;2080315;28;99870;-21
2021/08/04 14:42:29;;;;;;;10.13;5.32;;;;;;;;;;2081163;28;99745;-21
2021/08/04 14:43:30;;;;;;;15.35;4.97;;;;;;;;;;2071883;28;99938;-22
2021/08/04 14:44:31;;;;;;;;;;;;;;;;;;2072751;28;100022;-23
2021/08/04 14:45:32;;;;;;;15.07;5.22;;;;;;;;;;2081158;28;99872;-23
2021/08/04 14:46:33;;;;;;;;;;;;;;;;;;2080830;28;100170;-23
2021/08/04 14:47:35;;;;;;;11.25;4.28;;;;;;;;;;2080702;28;100058;-20
2021/08/04 14:48:35;;;;;;;8.95;4.60;;;;;;;;;;2080790;28;99928;-22
2021/08/04 14:49:36;;;;;;;;;;;;;;;;;;2080901;28;100104;-22
2021/08/04 14:50:38;;;;;;;9.82;4.63;;;;;;;;;;2081379;28;99959;-19
2021/08/04 14:51:39;;;;;;;9.43;4.75;;;;;;;;;;2081416;28;100424;-20
2021/08/04 14:52:40;;;;;;;;;;;;;;;;;;2081307;28;99996;-21
2021/08/04 14:53:41;;;;;;;9.48;4.28;;;;;;;;;;2081192;27;99900;-21
2021/08/04 14:54:42;;;;;;;;;;;;;;;;;;2081796;28;99876;-18
2021/08/04 14:55:43;;;;;;;9.23;4.15;;;;;;;;;;2081090;28;99976;-21
2021/08/04 14:56:46;;;;;;;9.95;4.20;;;;;;;;;;2081143;28;100066;-19
2021/08/04 14:57:47;;;;;;;8.48;4.25;;;;;;;;;;2081081;28;99848;-21
2021/08/04 14:58:48;;;;;;;8.55;4.03;;;;;;;;;;2080200;28;99809;-22
2021/08/04 14:59:48;;;;;;;;;;;;;;;;;;2080849;28;100013;-20
2021/08/04 15:00:50;;;;;;;8.23;4.10;;;;;;;;;;2097570;27;100467;-21
2021/08/04 15:01:50;;;;;;;10.23;4.13;;;;;;;;;;2097057;27;99996;-19
2021/08/04 15:02:51;;;;;;;8.10;4.00;;;;;;;;;;2081281;28;99911;-22
2021/08/04 15:03:52;;;;;;;;;;;;;;;;;;2081701;28;99893;-22
2021/08/04 15:04:53;;;;;;;4.82;3.30;;;;;;;;;;2080939;28;99844;-21
2021/08/04 15:05:54;;;;;;;;;;;;;;;;;;2081620;28;100012;-23
2021/08/04 15:06:55;;;;;;;13.02;4.10;;;;;;;;;;2081123;28;99786;-21
2021/08/04 15:07:55;;;;;;;;;;;;;;;;;;2081075;28;100091;-19
2021/08/04 15:08:56;;;;;;;6.00;3.47;;;;;;;;;;2080821;28;99781;-21
2021/08/04 15:09:57;;;;;;;9.55;4.28;;;;;;;;;;2080468;28;99957;-21
2021/08/04 15:10:59;;;;;;;7.30;3.33;;;;;;;;;;2079985;28;100085;-19
2021/08/04 15:12:01;;;;;;;9.40;3.72;;;;;;;;;;2080375;28;100247;-19
2021/08/04 15:13:02;;;;;;;6.72;3.05;;;;;;;;;;2080180;28;100090;-21
2021/08/04 15:14:04;;;;;;;7.68;3.22;;;;;;;;;;2081083;28;99912;-20
2021/08/04 15:15:07;;;;;;;6.78;3.58;;;;;;;;;;2080646;27;100017;-22
2021/08/04 15:16:08;;;;;;;5.95;3.42;;;;;;;;;;2081190;27;99793;-22
2021/08/04 15:17:09;;;;;;;;;;;;;;;;;;2080233;28;100067;-22
2021/08/04 15:18:10;;;;;;;8.93;3.83;;;;;;;;;;2080228;28;100027;-23
2021/08/04 15:19:11;;;;;;;9.05;3.33;;;;;;;;;;2080852;27;99939;-19
2021/08/04 15:20:12;;;;;;;5.72;3.25;;;;;;;;;;2081011;28;100043;-21
2021/08/04 15:21:13;;;;;;;6.30;3.30;;;;;;;;;;2080728;28;99910;-23
2021/08/04 15:22:13;;;;;;;;;;;;;;;;;;2081751;28;99916;-22
2021/08/04 15:23:15;;;;;;;7.18;3.13;;;;;;;;;;2097100;27;100069;-23
2021/08/04 15:24:16;;;;;;;7.55;3.65;;;;;;;;;;2097390;27;99829;-23
2021/08/04 15:25:17;;;;;;;6.07;3.10;;;;;;;;;;2080441;28;99902;-20
2021/08/04 15:26:18;;;;;;;;;;;;;;;;;;2080478;28;99972;-22
2021/08/04 15:27:19;;;;;;;4.80;2.85;;;;;;;;;;2080314;28;99945;-22
2021/08/04 15:28:20;;;;;;;4.50;2.88;;;;;;;;;;2080712;27;99951;-21
2021/08/04 15:29:21;;;;;;;;;;;;;;;;;;2081234;28;99980;-20
2021/08/04 15:30:22;;;;;;;5.35;3.22;;;;;;;;;;2080382;28;99910;-21
2021/08/04 15:31:22;;;;;;;4.57;2.30;;;;;;;;;;2088350;27;100215;-21
2021/08/04 15:32:24;;;;;;;5.30;2.80;;;;;;;;;;2096780;27;99954;-22
2021/08/04 15:33:28;;;;;;;8.07;2.97;;;;;;;;;;2080866;28;99860;-20
2021/08/04 15:34:29;;;;;;;5.88;2.78;;;;;;;;;;2080483;28;99879;-22
2021/08/04 15:35:29;;;;;;;;;;;;;;;;;;2080678;28;100003;-21
2021/08/04 15:36:31;;;;;;;4.18;2.70;;;;;;;;;;2080965;27;99912;-20
2021/08/04 15:37:31;;;;;;;;;;;;;;;;;;2081455;28;100040;-23
2021/08/04 15:38:39;;;;;;;4.35;2.65;;;;;;;;;;2081122;28;99923;-23
2021/08/04 15:39:40;;;;;;;6.07;2.83;;;;;;;;;;2080771;28;99899;-23
2021/08/04 15:40:41;;;;;;;7.25;2.80;;;;;;;;;;2079938;28;100157;-19
2021/08/04 15:41:42;;;;;;;;;;;;;;;;;;2074957;28;100032;-19